createdAt,value
2022-11-28T00:01:23.059Z,77.00
2022-11-28T00:03:49.795Z,76.80
2022-11-28T00:06:16.879Z,76.80
2022-11-28T00:08:44.301Z,76.90
2022-11-28T00:11:12.875Z,76.90
2022-11-28T00:13:39.782Z,76.80
2022-11-28T00:16:09.133Z,76.70
2022-11-28T00:18:36.025Z,76.90
2022-11-28T00:21:08.806Z,76.70
2022-11-28T00:23:35.735Z,76.70
2022-11-28T00:26:07.050Z,76.70
2022-11-28T00:28:34.110Z,76.70
2022-11-28T00:31:01.049Z,76.60
2022-11-28T00:33:28.097Z,76.90
2022-11-28T00:36:00.141Z,76.60
2022-11-28T00:38:27.306Z,76.30
2022-11-28T00:41:16.547Z,76.30
2022-11-28T00:43:45.209Z,76.50
2022-11-28T00:46:13.670Z,76.30
2022-11-28T00:48:40.775Z,76.20
2022-11-28T00:51:13.438Z,76.20
2022-11-28T00:53:42.674Z,76.40
2022-11-28T00:56:11.926Z,76.40
2022-11-28T00:58:39.278Z,76.20
2022-11-28T01:01:18.645Z,76.20
2022-11-28T01:03:46.172Z,76.20
2022-11-28T01:06:13.938Z,75.80
2022-11-28T01:08:40.613Z,75.90
2022-11-28T01:11:13.966Z,75.70
2022-11-28T01:13:40.937Z,76.00
2022-11-28T01:16:09.035Z,76.80
2022-11-28T01:18:36.238Z,76.30
2022-11-28T01:21:03.409Z,76.20
2022-11-28T01:23:30.219Z,76.30
2022-11-28T01:25:56.955Z,76.40
2022-11-28T01:28:23.915Z,76.30
2022-11-28T01:30:50.625Z,76.20
2022-11-28T01:33:17.350Z,76.20
2022-11-28T01:35:54.496Z,76.20
2022-11-28T01:38:21.621Z,76.20
2022-11-28T01:40:48.762Z,75.90
2022-11-28T01:43:15.670Z,76.00
2022-11-28T01:45:42.571Z,76.20
2022-11-28T01:48:13.710Z,76.40
2022-11-28T01:50:43.537Z,76.00
2022-11-28T01:53:10.988Z,75.90
2022-11-28T01:55:48.550Z,75.90
2022-11-28T01:58:15.752Z,75.90
2022-11-28T02:00:42.655Z,75.80
2022-11-28T02:03:20.907Z,75.90
2022-11-28T02:05:50.071Z,75.70
2022-11-28T02:08:16.786Z,75.50
2022-11-28T02:10:52.452Z,75.40
2022-11-28T02:13:37.865Z,75.70
2022-11-28T02:16:11.047Z,75.50
2022-11-28T02:18:50.447Z,76.00
2022-11-28T02:21:59.156Z,75.60
2022-11-28T02:24:54.704Z,75.70
2022-11-28T02:27:43.474Z,75.50
2022-11-28T02:30:19.533Z,75.30
2022-11-28T02:32:55.860Z,75.50
2022-11-28T02:35:37.726Z,75.30
2022-11-28T02:38:26.335Z,75.50
2022-11-28T02:41:15.925Z,75.30
2022-11-28T02:44:13.410Z,75.30
2022-11-28T02:46:58.538Z,75.30
2022-11-28T02:49:47.094Z,75.20
2022-11-28T02:52:19.871Z,75.40
2022-11-28T02:54:49.723Z,75.20
2022-11-28T02:57:16.559Z,75.00
2022-11-28T02:59:43.471Z,75.00
2022-11-28T03:02:32.455Z,75.00
2022-11-28T03:05:16.360Z,75.40
2022-11-28T03:08:07.192Z,75.00
2022-11-28T03:11:11.612Z,74.80
2022-11-28T03:13:56.653Z,75.00
2022-11-28T03:16:36.581Z,74.90
2022-11-28T03:19:17.070Z,74.90
2022-11-28T03:21:53.707Z,75.00
2022-11-28T03:24:27.929Z,74.90
2022-11-28T03:27:16.808Z,74.60
2022-11-28T03:29:49.013Z,74.60
2022-11-28T03:32:28.198Z,74.50
2022-11-28T03:35:02.753Z,74.50
2022-11-28T03:37:33.939Z,74.60
2022-11-28T03:40:07.123Z,74.40
2022-11-28T03:42:39.405Z,74.40
2022-11-28T03:45:16.116Z,74.20
2022-11-28T03:47:46.866Z,74.20
2022-11-28T03:50:22.976Z,74.00
2022-11-28T03:52:54.689Z,74.50
2022-11-28T03:55:35.357Z,74.50
2022-11-28T03:58:30.905Z,74.70
2022-11-28T04:01:09.296Z,74.80
2022-11-28T04:04:16.439Z,74.70
2022-11-28T04:06:52.213Z,74.80
2022-11-28T04:09:35.958Z,74.70
2022-11-28T04:12:26.449Z,74.50
2022-11-28T04:15:00.281Z,74.70
2022-11-28T04:17:46.234Z,74.50
2022-11-28T04:20:21.204Z,74.70
2022-11-28T04:22:53.935Z,74.60
2022-11-28T04:25:23.204Z,74.20
2022-11-28T04:28:04.998Z,74.00
2022-11-28T04:30:32.766Z,74.30
2022-11-28T04:33:03.826Z,74.20
2022-11-28T04:35:35.054Z,74.20
2022-11-28T04:38:05.058Z,74.20
2022-11-28T04:40:37.113Z,74.10
2022-11-28T04:43:11.131Z,73.90
2022-11-28T04:45:49.277Z,73.90
2022-11-28T04:48:16.167Z,73.90
2022-11-28T04:51:20.883Z,74.00
2022-11-28T04:53:54.497Z,75.00
2022-11-28T04:56:26.974Z,75.10
2022-11-28T04:58:53.793Z,75.10
2022-11-28T05:01:32.575Z,75.40
2022-11-28T05:03:59.876Z,75.20
2022-11-28T05:06:32.671Z,75.30
2022-11-28T05:09:00.131Z,75.30
2022-11-28T05:11:27.857Z,75.50
2022-11-28T05:13:55.507Z,75.60
2022-11-28T05:16:23.326Z,75.50
2022-11-28T05:18:50.174Z,75.60
2022-11-28T05:21:16.989Z,75.10
2022-11-28T05:23:45.006Z,75.10
2022-11-28T05:26:14.695Z,75.20
2022-11-28T05:28:46.143Z,75.00
2022-11-28T05:31:14.290Z,75.00
2022-11-28T05:33:41.086Z,75.20
2022-11-28T05:36:13.083Z,75.40
2022-11-28T05:38:40.981Z,75.10
2022-11-28T05:41:08.414Z,75.20
2022-11-28T05:43:35.502Z,75.30
2022-11-28T05:46:06.367Z,75.20
2022-11-28T05:48:33.175Z,75.50
2022-11-28T05:50:59.951Z,75.60
2022-11-28T05:53:26.682Z,75.50
2022-11-28T05:55:53.443Z,75.50
2022-11-28T05:58:20.155Z,75.20
2022-11-28T06:00:46.935Z,75.30
2022-11-28T06:03:13.688Z,75.50
2022-11-28T06:05:43.701Z,75.30
2022-11-28T06:08:12.622Z,75.30
2022-11-28T06:10:39.669Z,75.30
2022-11-28T06:13:06.495Z,75.20
2022-11-28T06:15:37.517Z,75.10
2022-11-28T06:18:05.057Z,75.20
2022-11-28T06:20:31.897Z,75.10
2022-11-28T06:22:59.033Z,75.20
2022-11-28T06:25:25.766Z,75.40
2022-11-28T06:27:52.531Z,75.30
2022-11-28T06:30:19.340Z,75.60
2022-11-28T06:32:46.161Z,75.30
2022-11-28T06:35:12.926Z,75.20
2022-11-28T06:37:39.686Z,75.60
2022-11-28T06:40:07.214Z,75.60
2022-11-28T06:42:36.589Z,75.50
2022-11-28T06:45:04.555Z,75.40
2022-11-28T06:47:31.417Z,75.40
2022-11-28T06:49:58.146Z,75.20
2022-11-28T06:52:24.977Z,75.10
2022-11-28T06:54:51.989Z,75.30
2022-11-28T06:57:18.767Z,75.10
2022-11-28T06:59:45.584Z,75.30
2022-11-28T07:02:12.534Z,75.10
2022-11-28T07:04:39.404Z,74.90
2022-11-28T07:07:06.289Z,75.00
2022-11-28T07:09:33.012Z,74.90
2022-11-28T07:11:59.754Z,75.10
2022-11-28T07:14:26.604Z,75.30
2022-11-28T07:16:53.568Z,75.50
2022-11-28T07:19:23.011Z,75.50
2022-11-28T07:21:50.259Z,75.70
2022-11-28T07:24:18.350Z,75.50
2022-11-28T07:26:46.095Z,75.40
2022-11-28T07:29:17.769Z,75.10
2022-11-28T07:31:44.788Z,75.10
2022-11-28T07:34:11.789Z,75.50
2022-11-28T07:36:38.636Z,75.50
2022-11-28T07:39:08.564Z,75.50
2022-11-28T07:41:35.397Z,75.40
2022-11-28T07:44:03.784Z,75.00
2022-11-28T07:46:32.626Z,75.30
2022-11-28T07:48:59.638Z,75.40
2022-11-28T07:51:32.690Z,75.30
2022-11-28T07:54:00.993Z,75.30
2022-11-28T07:56:50.198Z,75.30
2022-11-28T07:59:17.581Z,75.30
2022-11-28T08:01:44.425Z,75.20
2022-11-28T08:04:11.381Z,75.10
2022-11-28T08:06:41.842Z,75.10
2022-11-28T08:09:09.256Z,75.00
2022-11-28T08:11:36.223Z,74.90
2022-11-28T08:14:03.267Z,75.10
2022-11-28T08:16:30.305Z,75.30
2022-11-28T08:18:59.828Z,75.30
2022-11-28T08:21:34.190Z,75.40
2022-11-28T08:24:02.963Z,75.50
2022-11-28T08:26:31.911Z,75.30
2022-11-28T08:29:00.160Z,75.20
2022-11-28T08:31:33.048Z,75.50
2022-11-28T08:34:03.315Z,75.60
2022-11-28T08:36:30.241Z,75.60
2022-11-28T08:41:45.772Z,75.40
2022-11-28T08:44:13.344Z,75.80
2022-11-28T08:46:40.182Z,75.60
2022-11-28T08:49:07.531Z,75.30
2022-11-28T08:51:34.390Z,75.80
2022-11-28T08:54:01.282Z,75.10
2022-11-28T08:56:28.408Z,75.40
2022-11-28T08:58:55.835Z,75.70
2022-11-28T09:01:25.277Z,75.60
2022-11-28T09:03:53.079Z,75.40
2022-11-28T09:06:21.083Z,75.60
2022-11-28T09:08:49.100Z,75.40
2022-11-28T09:11:18.156Z,75.00
2022-11-28T09:13:45.201Z,75.10
2022-11-28T09:16:12.636Z,75.00
2022-11-28T09:18:39.561Z,75.00
2022-11-28T09:21:11.677Z,75.20
2022-11-28T09:23:40.913Z,74.80
2022-11-28T09:26:09.487Z,74.70
2022-11-28T09:28:36.454Z,75.20
2022-11-28T09:31:05.152Z,75.20
2022-11-28T09:33:32.159Z,75.40
2022-11-28T09:35:59.399Z,75.50
2022-11-28T09:38:26.248Z,75.10
2022-11-28T09:40:53.235Z,75.40
2022-11-28T09:43:45.090Z,75.80
2022-11-28T09:46:25.785Z,75.70
2022-11-28T09:48:56.572Z,75.20
2022-11-28T09:51:27.843Z,75.00
2022-11-28T09:54:24.549Z,75.10
2022-11-28T09:56:51.406Z,75.50
2022-11-28T09:59:26.490Z,75.10
2022-11-28T10:01:58.470Z,75.00
2022-11-28T10:04:42.043Z,74.90
2022-11-28T10:07:14.967Z,74.40
2022-11-28T10:09:55.643Z,74.70
2022-11-28T10:12:27.630Z,74.90
2022-11-28T10:14:54.339Z,74.70
2022-11-28T10:17:48.887Z,74.50
2022-11-28T10:20:27.064Z,74.70
2022-11-28T10:23:06.477Z,74.80
2022-11-28T10:25:50.919Z,74.70
2022-11-28T10:28:28.373Z,75.40
2022-11-28T10:31:20.779Z,74.50
2022-11-28T10:34:04.416Z,74.50
2022-11-28T10:36:39.500Z,74.80
2022-11-28T10:39:12.399Z,74.70
2022-11-28T10:42:13.830Z,74.30
2022-11-28T10:45:02.162Z,74.80
2022-11-28T10:47:28.834Z,74.40
2022-11-28T10:50:19.825Z,74.10
2022-11-28T10:53:12.207Z,74.90
2022-11-28T10:56:09.931Z,74.70
2022-11-28T10:58:56.761Z,74.50
2022-11-28T11:01:25.479Z,74.40
2022-11-28T11:03:52.376Z,73.80
2022-11-28T11:06:19.141Z,73.80
2022-11-28T11:08:47.920Z,74.20
2022-11-28T11:11:29.254Z,74.50
2022-11-28T11:14:08.724Z,74.80
2022-11-28T11:16:54.090Z,74.50
2022-11-28T11:19:26.807Z,74.50
2022-11-28T11:22:19.171Z,74.30
2022-11-28T11:25:16.295Z,74.50
2022-11-28T11:28:01.710Z,74.80
2022-11-28T11:30:34.743Z,74.30
2022-11-28T11:33:03.845Z,73.80
2022-11-28T11:35:37.069Z,73.40
2022-11-28T11:38:17.690Z,73.20
2022-11-28T11:40:44.864Z,73.60
2022-11-28T11:43:33.156Z,73.00
2022-11-28T11:46:07.921Z,73.10
2022-11-28T11:48:50.530Z,72.90
2022-11-28T11:51:26.627Z,73.00
2022-11-28T11:54:12.594Z,72.70
2022-11-28T11:56:43.310Z,72.50
2022-11-28T11:59:20.000Z,72.20
2022-11-28T12:01:50.706Z,72.10
2022-11-28T12:07:26.384Z,71.90
2022-11-28T12:09:55.372Z,71.80
2022-11-28T12:12:29.232Z,71.50
2022-11-28T12:14:56.418Z,71.60
2022-11-28T12:20:32.911Z,71.60
2022-11-28T12:23:17.540Z,71.60
2022-11-28T12:25:54.015Z,71.50
2022-11-28T12:28:47.284Z,71.40
2022-11-28T12:31:39.260Z,71.50
2022-11-28T12:34:32.862Z,71.40
2022-11-28T12:37:17.992Z,71.10
2022-11-28T12:39:44.980Z,70.90
2022-11-28T12:42:29.948Z,71.00
2022-11-28T12:45:19.281Z,71.40
2022-11-28T12:47:51.579Z,71.50
2022-11-28T12:50:39.500Z,71.00
2022-11-28T12:53:18.166Z,71.40
2022-11-28T12:56:15.130Z,70.80
2022-11-28T12:58:51.450Z,71.30
2022-11-28T13:01:27.284Z,71.00
2022-11-28T13:04:09.166Z,70.80
2022-11-28T13:06:54.139Z,71.20
2022-11-28T13:09:34.067Z,71.30
2022-11-28T13:12:12.188Z,71.30
2022-11-28T13:14:50.841Z,71.10
2022-11-28T13:17:38.607Z,71.00
2022-11-28T13:20:27.568Z,71.00
2022-11-28T13:23:25.116Z,71.00
2022-11-28T13:26:04.559Z,71.00
2022-11-28T13:29:02.072Z,70.70
2022-11-28T13:31:38.346Z,71.20
2022-11-28T13:34:11.151Z,70.50
2022-11-28T13:39:49.354Z,70.60
2022-11-28T13:42:59.954Z,70.60
2022-11-28T13:45:32.373Z,70.50
2022-11-28T13:48:00.816Z,70.80
2022-11-28T13:50:35.408Z,70.50
2022-11-28T13:53:10.316Z,70.80
2022-11-28T13:55:47.260Z,70.90
2022-11-28T13:58:31.537Z,70.80
2022-11-28T14:01:16.248Z,71.00
2022-11-28T14:03:52.193Z,70.90
2022-11-28T14:06:39.191Z,70.50
2022-11-28T14:09:11.940Z,71.00
2022-11-28T14:12:12.459Z,70.70
2022-11-28T14:15:03.431Z,71.00
2022-11-28T14:17:36.156Z,70.90
2022-11-28T14:20:32.065Z,70.70
2022-11-28T14:23:26.521Z,71.00
2022-11-28T14:25:55.712Z,70.70
2022-11-28T14:28:30.663Z,70.30
2022-11-28T14:31:32.342Z,70.50
2022-11-28T14:34:19.473Z,70.80
2022-11-28T14:36:46.464Z,70.40
2022-11-28T14:39:15.088Z,70.40
2022-11-28T14:42:04.796Z,70.40
2022-11-28T14:44:46.908Z,70.70
2022-11-28T14:47:21.697Z,70.50
2022-11-28T14:49:49.447Z,70.50
2022-11-28T14:52:39.783Z,70.30
2022-11-28T14:55:08.301Z,70.40
2022-11-28T14:57:51.632Z,70.20
2022-11-28T15:00:24.490Z,70.20
2022-11-28T15:03:12.541Z,70.20
2022-11-28T15:05:55.460Z,70.30
2022-11-28T15:08:32.312Z,70.50
2022-11-28T15:11:22.002Z,70.20
2022-11-28T15:14:00.153Z,70.50
2022-11-28T15:16:31.540Z,70.20
2022-11-28T15:19:06.224Z,70.20
2022-11-28T15:21:46.065Z,70.30
2022-11-28T15:24:17.171Z,70.50
2022-11-28T15:26:44.841Z,70.20
2022-11-28T15:29:24.687Z,70.20
2022-11-28T15:31:55.535Z,70.50
2022-11-28T15:34:34.803Z,70.20
2022-11-28T15:37:06.515Z,70.30
2022-11-28T15:39:39.860Z,70.10
2022-11-28T15:42:19.754Z,70.20
2022-11-28T15:44:47.987Z,70.10
2022-11-28T15:47:20.641Z,70.00
2022-11-28T15:50:19.503Z,70.20
2022-11-28T15:53:13.479Z,70.20
2022-11-28T15:55:40.253Z,70.10
2022-11-28T15:58:28.601Z,69.90
2022-11-28T16:01:03.808Z,70.20
2022-11-28T16:03:36.126Z,70.20
2022-11-28T16:06:03.860Z,70.10
2022-11-28T16:08:35.646Z,70.00
2022-11-28T16:11:05.528Z,70.10
2022-11-28T16:13:34.882Z,70.10
2022-11-28T16:16:14.265Z,70.10
2022-11-28T16:18:51.427Z,70.10
2022-11-28T16:21:18.274Z,70.30
2022-11-28T16:23:45.068Z,70.40
2022-11-28T16:26:21.712Z,70.30
2022-11-28T16:29:09.560Z,70.50
2022-11-28T16:31:36.369Z,70.40
2022-11-28T16:34:03.458Z,70.10
2022-11-28T16:36:31.084Z,70.10
2022-11-28T16:39:14.708Z,70.10
2022-11-28T16:41:51.999Z,70.20
2022-11-28T16:44:24.530Z,70.00
2022-11-28T16:46:52.848Z,69.90
2022-11-28T16:49:44.935Z,69.70
2022-11-28T16:52:24.288Z,70.10
2022-11-28T16:54:55.455Z,70.00
2022-11-28T16:57:23.091Z,69.90
2022-11-28T16:59:54.342Z,69.70
2022-11-28T17:02:23.469Z,69.80
2022-11-28T17:04:52.054Z,69.80
2022-11-28T17:07:23.866Z,69.70
2022-11-28T17:09:51.128Z,69.90
2022-11-28T17:12:30.032Z,69.70
2022-11-28T17:14:58.316Z,69.90
2022-11-28T17:17:25.348Z,69.80
2022-11-28T17:19:52.282Z,69.70
2022-11-28T17:22:25.550Z,69.80
2022-11-28T17:25:00.806Z,69.90
2022-11-28T17:27:27.898Z,69.90
2022-11-28T17:29:55.110Z,69.60
2022-11-28T17:32:21.954Z,69.60
2022-11-28T17:34:48.672Z,69.70
2022-11-28T17:37:16.412Z,69.90
2022-11-28T17:40:03.163Z,70.00
2022-11-28T17:42:31.413Z,70.20
2022-11-28T17:44:58.255Z,70.20
2022-11-28T17:47:26.105Z,70.30
2022-11-28T17:49:52.963Z,70.30
2022-11-28T17:52:21.098Z,70.40
2022-11-28T17:54:48.132Z,70.50
2022-11-28T17:57:14.841Z,70.40
2022-11-28T17:59:41.728Z,70.50
2022-11-28T18:02:10.960Z,70.50
2022-11-28T18:04:38.279Z,70.60
2022-11-28T18:07:05.249Z,70.50
2022-11-28T18:09:31.933Z,70.40
2022-11-28T18:11:58.711Z,70.30
2022-11-28T18:14:25.641Z,71.00
2022-11-28T18:16:52.471Z,70.10
2022-11-28T18:19:19.629Z,70.00
2022-11-28T18:21:47.129Z,70.10
2022-11-28T18:24:13.929Z,70.00
2022-11-28T18:26:41.543Z,69.90
2022-11-28T18:29:08.367Z,69.90
2022-11-28T18:31:35.697Z,70.00
2022-11-28T18:34:04.756Z,69.90
2022-11-28T18:36:37.493Z,69.90
2022-11-28T18:39:08.909Z,69.80
2022-11-28T18:41:35.666Z,69.70
2022-11-28T18:44:04.962Z,69.80
2022-11-28T18:46:33.229Z,69.80
2022-11-28T18:49:00.370Z,69.90
2022-11-28T18:51:33.023Z,69.90
2022-11-28T18:54:03.797Z,69.90
2022-11-28T18:56:31.696Z,70.00
2022-11-28T18:58:59.426Z,70.00
2022-11-28T19:01:31.480Z,70.00
2022-11-28T19:04:02.055Z,70.00
2022-11-28T19:06:29.899Z,69.90
2022-11-28T19:09:00.186Z,69.70
2022-11-28T19:11:28.687Z,69.70
2022-11-28T19:13:57.002Z,69.60
2022-11-28T19:16:26.830Z,69.70
2022-11-28T19:18:55.393Z,69.70
2022-11-28T19:21:25.779Z,69.80
2022-11-28T19:23:55.228Z,69.80
2022-11-28T19:26:25.260Z,69.80
2022-11-28T19:28:52.767Z,69.80
2022-11-28T19:31:21.811Z,69.80
2022-11-28T19:34:12.903Z,69.80
2022-11-28T19:36:42.179Z,70.10
2022-11-28T19:39:16.958Z,69.80
2022-11-28T19:41:44.731Z,69.70
2022-11-28T19:44:13.667Z,69.80
2022-11-28T19:46:40.734Z,69.70
2022-11-28T19:49:15.139Z,69.90
2022-11-28T19:51:42.110Z,69.90
2022-11-28T19:54:09.010Z,69.70
2022-11-28T19:56:35.787Z,69.70
2022-11-28T19:59:02.608Z,69.70
2022-11-28T20:01:29.441Z,69.80
2022-11-28T20:03:58.788Z,69.90
2022-11-28T20:06:27.827Z,69.80
2022-11-28T20:08:57.976Z,69.80
2022-11-28T20:11:27.608Z,69.80
2022-11-28T20:14:00.507Z,69.80
2022-11-28T20:16:30.324Z,69.80
2022-11-28T20:19:00.377Z,69.90
2022-11-28T20:21:28.163Z,69.80
2022-11-28T20:23:59.624Z,69.80
2022-11-28T20:26:26.997Z,69.80
2022-11-28T20:28:56.052Z,69.90
2022-11-28T20:31:30.680Z,69.90
2022-11-28T20:33:58.660Z,69.80
2022-11-28T20:36:27.574Z,69.70
2022-11-28T20:38:55.718Z,69.70
2022-11-28T20:41:24.196Z,70.70
2022-11-28T20:43:51.364Z,69.90
2022-11-28T20:46:24.124Z,69.90
2022-11-28T20:48:51.939Z,70.00
2022-11-28T20:51:27.769Z,69.80
2022-11-28T20:53:56.266Z,70.00
2022-11-28T20:56:25.516Z,69.90
2022-11-28T20:58:52.863Z,70.00
2022-11-28T21:01:24.752Z,70.10
2022-11-28T21:03:52.389Z,70.30
2022-11-28T21:06:19.665Z,70.20
2022-11-28T21:08:46.917Z,70.20
2022-11-28T21:11:43.373Z,70.10
2022-11-28T21:14:06.762Z,69.90
2022-11-28T21:16:34.651Z,69.90
2022-11-28T21:19:04.757Z,69.70
2022-11-28T21:21:33.035Z,69.70
2022-11-28T21:24:02.590Z,70.00
2022-11-28T21:26:30.813Z,69.90
2022-11-28T21:29:02.395Z,70.00
2022-11-28T21:31:32.912Z,70.00
2022-11-28T21:33:59.851Z,70.00
2022-11-28T21:36:28.190Z,69.90
2022-11-28T21:38:57.926Z,69.90
2022-11-28T21:41:31.927Z,69.80
2022-11-28T21:43:59.731Z,69.80
2022-11-28T21:46:27.238Z,69.90
2022-11-28T21:48:54.480Z,70.00
2022-11-28T21:51:23.536Z,70.00
2022-11-28T21:53:51.131Z,70.00
2022-11-28T21:56:18.410Z,69.80
2022-11-28T21:58:45.323Z,70.60
2022-11-28T22:01:14.257Z,69.70
2022-11-28T22:03:43.605Z,69.70
2022-11-28T22:06:23.211Z,69.60
2022-11-28T22:08:51.438Z,69.70
2022-11-28T22:11:22.569Z,69.60
2022-11-28T22:13:50.374Z,69.40
2022-11-28T22:16:28.771Z,69.50
2022-11-28T22:18:58.596Z,69.60
2022-11-28T22:24:13.918Z,69.30
2022-11-28T22:26:40.834Z,69.30
2022-11-28T22:29:07.630Z,69.50
2022-11-28T22:31:35.357Z,69.30
2022-11-28T22:34:02.216Z,69.30
2022-11-28T22:36:31.286Z,69.90
2022-11-28T22:38:58.535Z,69.30
2022-11-28T22:41:29.396Z,69.40
2022-11-28T22:44:00.725Z,69.40
2022-11-28T22:46:28.536Z,69.20
2022-11-28T22:48:55.458Z,69.30
2022-11-28T22:51:24.857Z,69.40
2022-11-28T22:53:57.741Z,69.50
2022-11-28T22:56:27.620Z,69.50
2022-11-28T22:58:54.804Z,69.40
2022-11-28T23:01:29.750Z,69.40
2022-11-28T23:03:57.258Z,69.40
2022-11-28T23:06:26.530Z,69.30
2022-11-28T23:08:58.135Z,69.20
2022-11-28T23:11:29.139Z,69.30
2022-11-28T23:13:56.681Z,69.30
2022-11-28T23:16:29.383Z,69.40
2022-11-28T23:18:59.608Z,69.50
2022-11-28T23:21:29.912Z,69.40
2022-11-28T23:23:57.281Z,69.50
2022-11-28T23:26:28.510Z,69.40
2022-11-28T23:28:56.115Z,69.40
2022-11-28T23:31:29.220Z,69.40
2022-11-28T23:33:57.202Z,69.20
2022-11-28T23:36:29.664Z,69.20
2022-11-28T23:39:00.071Z,69.20
2022-11-28T23:41:28.298Z,69.10
2022-11-28T23:43:55.426Z,69.20
2022-11-28T23:46:23.346Z,69.20
2022-11-28T23:48:50.594Z,69.20
2022-11-28T23:51:19.149Z,69.10
2022-11-28T23:53:46.192Z,69.10
2022-11-28T23:56:15.966Z,69.00
2022-11-28T23:58:42.767Z,69.00
